createdAt,value
2023-08-12T00:00:12.674Z,84.55
2023-08-12T00:02:45.163Z,84.16
2023-08-12T00:05:14.470Z,84.05
2023-08-12T00:07:43.388Z,84.05
2023-08-12T00:10:14.088Z,83.53
2023-08-12T00:12:42.325Z,83.36
2023-08-12T00:15:12.510Z,83.73
2023-08-12T00:17:43.189Z,83.41
2023-08-12T00:20:13.561Z,82.98
2023-08-12T00:22:42.766Z,84.03
2023-08-12T00:25:10.984Z,84.08
2023-08-12T00:27:40.243Z,83.23
2023-08-12T00:30:09.174Z,81.41
2023-08-12T00:32:40.003Z,80.88
2023-08-12T00:35:09.093Z,77.26
2023-08-12T00:37:37.098Z,74.48
2023-08-12T00:40:07.931Z,71.85
2023-08-12T00:42:35.922Z,76.24
2023-08-12T00:45:05.607Z,77.72
2023-08-12T00:47:33.974Z,78.37
2023-08-12T00:50:03.463Z,78.06
2023-08-12T00:52:32.018Z,79.20
2023-08-12T00:55:00.100Z,79.42
2023-08-12T00:57:29.148Z,79.32
2023-08-12T00:59:58.701Z,79.23
2023-08-12T01:02:26.899Z,78.49
2023-08-12T01:04:56.130Z,78.16
2023-08-12T01:07:25.955Z,77.19
2023-08-12T01:09:54.345Z,77.25
2023-08-12T01:12:28.753Z,77.31
2023-08-12T01:15:11.951Z,77.84
2023-08-12T01:17:43.630Z,79.32
2023-08-12T01:20:14.115Z,79.63
2023-08-12T01:22:47.848Z,80.35
2023-08-12T01:25:18.060Z,81.24
2023-08-12T01:27:47.310Z,82.17
2023-08-12T01:30:16.452Z,82.36
2023-08-12T01:32:55.758Z,82.82
2023-08-12T01:35:28.304Z,83.65
2023-08-12T01:38:00.414Z,84.42
2023-08-12T01:40:31.480Z,86.44
2023-08-12T01:43:02.050Z,87.83
2023-08-12T01:45:33.096Z,88.49
2023-08-12T01:48:01.730Z,89.21
2023-08-12T01:50:29.944Z,90.07
2023-08-12T01:53:00.030Z,90.99
2023-08-12T01:55:29.404Z,91.83
2023-08-12T01:57:58.494Z,93.04
2023-08-12T02:00:26.988Z,93.98
2023-08-12T02:02:55.203Z,95.93
2023-08-12T02:05:23.663Z,97.06
2023-08-12T02:07:52.200Z,98.17
2023-08-12T02:10:21.193Z,99.34
2023-08-12T02:12:50.552Z,100.00
2023-08-12T02:15:19.319Z,100.00
2023-08-12T02:17:47.869Z,100.00
2023-08-12T02:20:16.052Z,100.00
2023-08-12T02:22:44.576Z,100.00
2023-08-12T02:25:13.059Z,100.00
2023-08-12T02:27:41.187Z,100.00
2023-08-12T02:30:13.634Z,100.00
2023-08-12T02:32:44.540Z,100.00
2023-08-12T02:35:13.550Z,100.00
2023-08-12T02:37:41.501Z,100.00
2023-08-12T02:40:11.712Z,100.00
2023-08-12T02:42:40.600Z,100.00
2023-08-12T02:45:08.976Z,100.00
2023-08-12T02:47:38.888Z,100.00
2023-08-12T02:50:07.598Z,100.00
2023-08-12T02:52:35.799Z,100.00
2023-08-12T02:55:05.040Z,100.00
2023-08-12T02:57:33.090Z,100.00
2023-08-12T03:00:01.797Z,100.00
2023-08-12T03:02:29.891Z,100.00
2023-08-12T03:04:59.323Z,100.00
2023-08-12T03:07:28.176Z,100.00
2023-08-12T03:09:56.251Z,100.00
2023-08-12T03:12:24.402Z,100.00
2023-08-12T03:14:53.295Z,100.00
2023-08-12T03:17:21.414Z,100.00
2023-08-12T03:19:50.798Z,100.00
2023-08-12T03:22:20.290Z,100.00
2023-08-12T03:24:51.904Z,100.00
2023-08-12T03:27:19.969Z,100.00
2023-08-12T03:29:48.886Z,100.00
2023-08-12T03:32:18.258Z,100.00
2023-08-12T03:34:46.327Z,100.00
2023-08-12T03:37:14.639Z,100.00
2023-08-12T03:39:45.877Z,100.00
2023-08-12T03:42:15.740Z,100.00
2023-08-12T03:44:44.746Z,100.00
2023-08-12T03:47:13.392Z,100.00
2023-08-12T03:49:42.970Z,100.00
2023-08-12T03:52:11.526Z,100.00
2023-08-12T03:54:39.567Z,100.00
2023-08-12T03:57:09.748Z,100.00
2023-08-12T03:59:39.122Z,100.00
2023-08-12T04:02:08.674Z,100.00
2023-08-12T04:04:36.665Z,100.00
2023-08-12T04:07:05.111Z,100.00
2023-08-12T04:09:33.161Z,100.00
2023-08-12T04:12:01.182Z,100.00
2023-08-12T04:14:31.688Z,100.00
2023-08-12T04:16:59.782Z,100.00
2023-08-12T04:19:27.787Z,100.00
2023-08-12T04:21:56.779Z,100.00
2023-08-12T04:24:24.851Z,100.00
2023-08-12T04:26:53.307Z,100.00
2023-08-12T04:29:21.400Z,100.00
2023-08-12T04:31:51.169Z,100.00
2023-08-12T04:34:20.117Z,100.00
2023-08-12T04:36:48.093Z,100.00
2023-08-12T04:39:17.070Z,100.00
2023-08-12T04:41:47.926Z,100.00
2023-08-12T04:44:17.580Z,100.00
2023-08-12T04:46:45.786Z,100.00
2023-08-12T04:49:15.200Z,100.00
2023-08-12T04:51:44.926Z,100.00
2023-08-12T04:54:13.922Z,100.00
2023-08-12T04:56:44.644Z,100.00
2023-08-12T04:59:12.976Z,100.00
2023-08-12T05:01:54.476Z,100.00
2023-08-12T05:04:32.596Z,100.00
2023-08-12T05:07:00.605Z,100.00
2023-08-12T05:09:29.175Z,100.00
2023-08-12T05:11:57.166Z,100.00
2023-08-12T05:14:25.561Z,100.00
2023-08-12T05:16:54.081Z,100.00
2023-08-12T05:19:22.411Z,100.00
2023-08-12T05:21:52.685Z,100.00
2023-08-12T05:24:21.598Z,100.00
2023-08-12T05:26:49.633Z,100.00
2023-08-12T05:29:18.498Z,100.00
2023-08-12T05:31:46.589Z,100.00
2023-08-12T05:34:14.574Z,100.00
2023-08-12T05:36:42.732Z,100.00
2023-08-12T05:39:12.676Z,100.00
2023-08-12T05:41:41.085Z,100.00
2023-08-12T05:44:09.282Z,100.00
2023-08-12T05:46:37.767Z,100.00
2023-08-12T05:49:06.252Z,100.00
2023-08-12T05:51:34.226Z,100.00
2023-08-12T05:54:03.230Z,100.00
2023-08-12T05:56:32.694Z,100.00
2023-08-12T05:59:01.587Z,100.00
2023-08-12T06:01:29.566Z,100.00
2023-08-12T06:03:58.532Z,100.00
2023-08-12T06:06:26.616Z,100.00
2023-08-12T06:08:54.570Z,100.00
2023-08-12T06:11:23.457Z,100.00
2023-08-12T06:13:52.810Z,100.00
2023-08-12T06:16:21.727Z,100.00
2023-08-12T06:18:49.724Z,100.00
2023-08-12T06:21:18.783Z,100.00
2023-08-12T06:23:47.166Z,100.00
2023-08-12T06:26:15.568Z,100.00
2023-08-12T06:28:43.629Z,100.00
2023-08-12T06:31:13.054Z,100.00
2023-08-12T06:33:41.671Z,100.00
2023-08-12T06:36:09.653Z,100.00
2023-08-12T06:38:37.682Z,100.00
2023-08-12T06:41:05.741Z,99.89
2023-08-12T06:43:33.744Z,99.97
2023-08-12T06:46:01.798Z,98.37
2023-08-12T06:48:31.431Z,98.39
2023-08-12T06:51:00.364Z,97.98
2023-08-12T06:53:28.750Z,97.88
2023-08-12T06:55:57.609Z,98.42
2023-08-12T06:58:25.536Z,98.20
2023-08-12T07:00:54.494Z,97.58
2023-08-12T07:03:23.035Z,96.39
2023-08-12T07:05:52.506Z,98.01
2023-08-12T07:08:20.561Z,97.47
2023-08-12T07:10:49.065Z,96.78
2023-08-12T07:13:17.514Z,96.44
2023-08-12T07:15:45.978Z,95.18
2023-08-12T07:18:14.050Z,97.16
2023-08-12T07:20:42.503Z,98.29
2023-08-12T07:23:11.883Z,98.54
2023-08-12T07:25:40.123Z,97.59
2023-08-12T07:28:08.261Z,96.83
2023-08-12T07:30:37.347Z,94.95
2023-08-12T07:33:06.685Z,95.79
2023-08-12T07:35:34.908Z,94.76
2023-08-12T07:38:03.055Z,95.07
2023-08-12T07:40:32.755Z,94.29
2023-08-12T07:43:00.522Z,93.63
2023-08-12T07:45:29.032Z,92.94
2023-08-12T07:47:57.229Z,92.17
2023-08-12T07:50:25.853Z,92.41
2023-08-12T07:52:54.565Z,90.36
2023-08-12T07:55:24.915Z,91.46
2023-08-12T07:57:56.186Z,89.38
2023-08-12T08:00:24.418Z,90.11
2023-08-12T08:02:52.413Z,91.08
2023-08-12T08:05:21.394Z,91.92
2023-08-12T08:07:49.422Z,92.07
2023-08-12T08:10:17.706Z,92.11
2023-08-12T08:12:46.114Z,94.02
2023-08-12T08:15:15.488Z,93.89
2023-08-12T08:17:43.736Z,93.76
2023-08-12T08:20:12.360Z,94.82
2023-08-12T08:22:40.734Z,96.13
2023-08-12T08:25:10.012Z,97.24
2023-08-12T08:27:38.469Z,97.72
2023-08-12T08:30:07.371Z,97.63
2023-08-12T08:32:36.740Z,99.14
2023-08-12T08:35:06.057Z,98.69
2023-08-12T08:37:34.138Z,99.93
2023-08-12T08:40:02.601Z,98.97
2023-08-12T08:42:31.104Z,99.64
2023-08-12T08:45:04.739Z,98.70
2023-08-12T08:47:33.612Z,99.12
2023-08-12T08:50:03.618Z,99.29
2023-08-12T08:52:32.522Z,100.00
2023-08-12T08:55:04.196Z,100.00
2023-08-12T08:57:43.664Z,98.64
2023-08-12T09:00:18.195Z,100.00
2023-08-12T09:02:49.401Z,100.00
2023-08-12T09:05:19.797Z,99.24
2023-08-12T09:07:49.541Z,98.11
2023-08-12T09:10:19.245Z,96.12
2023-08-12T09:12:48.666Z,96.57
2023-08-12T09:15:20.039Z,98.10
2023-08-12T09:17:48.139Z,97.77
2023-08-12T09:20:17.151Z,97.72
2023-08-12T09:22:47.027Z,95.98
2023-08-12T09:25:15.052Z,94.80
2023-08-12T09:27:42.991Z,94.34
2023-08-12T09:30:14.818Z,91.97
2023-08-12T09:32:44.400Z,94.09
2023-08-12T09:35:19.400Z,91.71
2023-08-12T09:37:48.897Z,92.36
2023-08-12T09:40:17.220Z,89.42
2023-08-12T09:42:49.840Z,90.30
2023-08-12T09:45:21.603Z,91.18
2023-08-12T09:47:50.487Z,90.08
2023-08-12T09:50:18.683Z,85.86
2023-08-12T09:52:49.010Z,81.97
2023-08-12T09:55:19.340Z,85.33
2023-08-12T09:57:50.156Z,83.44
2023-08-12T10:00:20.681Z,81.70
2023-08-12T10:02:49.891Z,82.09
2023-08-12T10:05:24.040Z,82.73
2023-08-12T10:07:55.837Z,84.18
2023-08-12T10:10:25.225Z,82.05
2023-08-12T10:12:54.043Z,82.64
2023-08-12T10:15:23.744Z,82.08
2023-08-12T10:17:54.169Z,79.09
2023-08-12T10:20:24.164Z,79.30
2023-08-12T10:22:54.347Z,77.51
2023-08-12T10:25:24.126Z,75.73
2023-08-12T10:27:54.126Z,76.91
2023-08-12T10:30:23.164Z,77.35
2023-08-12T10:32:51.955Z,78.61
2023-08-12T10:35:20.540Z,82.62
2023-08-12T10:37:52.003Z,80.44
2023-08-12T10:40:25.925Z,79.30
2023-08-12T10:42:54.270Z,80.20
2023-08-12T10:45:22.350Z,81.29
2023-08-12T10:47:54.594Z,83.02
2023-08-12T10:50:27.773Z,83.39
2023-08-12T10:52:56.892Z,83.74
2023-08-12T10:55:29.892Z,83.25
2023-08-12T10:58:00.613Z,85.37
2023-08-12T11:00:31.272Z,80.05
2023-08-12T11:03:00.129Z,79.71
2023-08-12T11:05:38.729Z,75.93
2023-08-12T11:08:08.521Z,76.47
2023-08-12T11:10:37.940Z,76.64
2023-08-12T11:13:06.447Z,75.19
2023-08-12T11:15:38.434Z,75.62
2023-08-12T11:18:07.732Z,77.85
2023-08-12T11:20:36.941Z,72.87
2023-08-12T11:23:06.796Z,73.79
2023-08-12T11:25:35.020Z,71.34
2023-08-12T11:28:06.443Z,73.77
2023-08-12T11:30:34.695Z,76.34
2023-08-12T11:33:04.286Z,78.00
2023-08-12T11:35:32.892Z,77.78
2023-08-12T11:38:01.475Z,77.54
2023-08-12T11:40:30.465Z,78.61
2023-08-12T11:42:59.219Z,77.49
2023-08-12T11:45:29.551Z,76.96
2023-08-12T11:47:59.024Z,78.29
2023-08-12T11:50:28.744Z,78.58
2023-08-12T11:52:59.030Z,79.08
2023-08-12T11:55:27.761Z,76.36
2023-08-12T11:57:56.300Z,75.83
2023-08-12T12:00:29.440Z,76.94
2023-08-12T12:02:58.651Z,76.07
2023-08-12T12:05:28.968Z,76.13
2023-08-12T12:07:57.420Z,74.37
2023-08-12T12:10:34.583Z,73.68
2023-08-12T12:13:05.966Z,73.57
2023-08-12T12:15:41.502Z,75.42
2023-08-12T12:18:12.672Z,77.07
2023-08-12T12:20:45.689Z,76.56
2023-08-12T12:23:13.793Z,76.19
2023-08-12T12:25:43.373Z,74.84
2023-08-12T12:28:11.792Z,74.54
2023-08-12T12:30:41.190Z,77.54
2023-08-12T12:33:10.181Z,76.40
2023-08-12T12:35:51.650Z,77.52
2023-08-12T12:38:25.273Z,77.57
2023-08-12T12:40:53.254Z,78.72
2023-08-12T12:43:21.326Z,76.96
2023-08-12T12:45:51.062Z,76.95
2023-08-12T12:48:19.140Z,74.93
2023-08-12T12:50:47.816Z,73.46
2023-08-12T12:53:15.827Z,76.18
2023-08-12T12:55:45.483Z,75.68
2023-08-12T12:58:14.483Z,75.72
2023-08-12T13:00:42.456Z,77.05
2023-08-12T13:03:13.457Z,79.21
2023-08-12T13:05:41.707Z,80.54
2023-08-12T13:08:09.993Z,80.94
2023-08-12T13:10:38.472Z,82.75
2023-08-12T13:13:06.605Z,82.30
2023-08-12T13:15:35.643Z,82.34
2023-08-12T13:18:04.138Z,82.64
2023-08-12T13:20:34.141Z,83.46
2023-08-12T13:23:02.712Z,82.61
2023-08-12T13:25:32.552Z,84.25
2023-08-12T13:28:01.714Z,88.37
2023-08-12T13:30:30.415Z,93.27
2023-08-12T13:33:01.703Z,94.64
2023-08-12T13:35:30.199Z,96.46
2023-08-12T13:38:00.080Z,96.68
2023-08-12T13:40:28.295Z,90.26
2023-08-12T13:42:58.159Z,86.12
2023-08-12T13:45:26.366Z,83.08
2023-08-12T13:47:54.530Z,80.14
2023-08-12T13:50:22.719Z,82.03
2023-08-12T13:52:52.055Z,79.12
2023-08-12T13:55:21.473Z,83.39
2023-08-12T13:57:49.514Z,80.44
2023-08-12T14:00:18.585Z,75.39
2023-08-12T14:02:48.665Z,78.67
2023-08-12T14:05:16.883Z,77.08
2023-08-12T14:07:45.580Z,72.46
2023-08-12T14:10:13.658Z,73.43
2023-08-12T14:12:43.609Z,70.22
2023-08-12T14:15:12.266Z,70.65
2023-08-12T14:17:40.970Z,71.33
2023-08-12T14:20:11.752Z,77.16
2023-08-12T14:22:39.771Z,81.29
2023-08-12T14:25:09.132Z,80.68
2023-08-12T14:27:37.709Z,84.46
2023-08-12T14:30:08.451Z,83.69
2023-08-12T14:32:36.734Z,83.72
2023-08-12T14:35:06.666Z,86.58
2023-08-12T14:37:34.773Z,87.04
2023-08-12T14:40:05.667Z,89.84
2023-08-12T14:42:33.754Z,90.90
2023-08-12T14:45:01.771Z,89.91
2023-08-12T14:47:31.788Z,89.58
2023-08-12T14:49:59.993Z,92.31
2023-08-12T14:52:28.424Z,91.66
2023-08-12T14:54:56.819Z,93.87
2023-08-12T14:57:24.825Z,91.13
2023-08-12T14:59:52.845Z,86.59
2023-08-12T15:02:22.776Z,85.36
2023-08-12T15:04:53.166Z,89.80
2023-08-12T15:07:23.044Z,92.68
2023-08-12T15:09:53.084Z,96.38
2023-08-12T15:12:21.383Z,93.65
2023-08-12T15:14:49.889Z,93.80
2023-08-12T15:17:18.601Z,88.26
2023-08-12T15:19:46.604Z,87.16
2023-08-12T15:22:16.094Z,84.19
2023-08-12T15:24:43.995Z,78.29
2023-08-12T15:27:12.311Z,84.51
2023-08-12T15:29:40.671Z,91.46
2023-08-12T15:32:08.769Z,92.99
2023-08-12T15:34:36.918Z,93.76
2023-08-12T15:37:07.507Z,92.43
2023-08-12T15:39:37.796Z,95.23
2023-08-12T15:42:06.512Z,96.34
2023-08-12T15:44:34.999Z,96.11
2023-08-12T15:47:02.998Z,96.46
2023-08-12T15:49:35.173Z,96.01
2023-08-12T15:52:03.600Z,96.26
2023-08-12T15:54:31.654Z,96.97
2023-08-12T15:57:02.233Z,98.58
2023-08-12T15:59:30.347Z,99.54
2023-08-12T16:01:58.711Z,100.00
2023-08-12T16:04:27.999Z,99.46
2023-08-12T16:06:56.059Z,100.00
2023-08-12T16:09:24.266Z,100.00
2023-08-12T16:11:52.692Z,100.00
2023-08-12T16:14:22.217Z,100.00
2023-08-12T16:16:50.737Z,100.00
2023-08-12T16:19:18.955Z,100.00
2023-08-12T16:21:46.982Z,100.00
2023-08-12T16:24:15.493Z,100.00
2023-08-12T16:26:43.906Z,100.00
2023-08-12T16:29:12.339Z,100.00
2023-08-12T16:31:42.249Z,100.00
2023-08-12T16:34:10.448Z,100.00
2023-08-12T16:36:38.889Z,96.73
2023-08-12T16:39:08.687Z,92.63
2023-08-12T16:41:38.425Z,91.51
2023-08-12T16:44:06.722Z,85.64
2023-08-12T16:46:34.693Z,76.17
2023-08-12T16:49:05.231Z,70.81
2023-08-12T16:51:34.232Z,71.57
2023-08-12T16:54:02.182Z,72.45
2023-08-12T16:56:31.851Z,69.04
2023-08-12T16:59:01.286Z,71.55
2023-08-12T17:01:29.400Z,78.46
2023-08-12T17:03:57.948Z,79.56
2023-08-12T17:06:27.319Z,82.79
2023-08-12T17:08:55.809Z,85.44
2023-08-12T17:11:24.353Z,87.17
2023-08-12T17:13:52.485Z,91.38
2023-08-12T17:16:20.549Z,90.61
2023-08-12T17:18:49.443Z,90.44
2023-08-12T17:21:17.478Z,91.79
2023-08-12T17:23:47.325Z,92.15
2023-08-12T17:26:15.801Z,93.69
2023-08-12T17:28:43.760Z,94.59
2023-08-12T17:31:13.004Z,94.61
2023-08-12T17:33:41.683Z,95.03
2023-08-12T17:36:09.685Z,95.58
2023-08-12T17:38:38.144Z,94.25
2023-08-12T17:41:07.674Z,94.61
2023-08-12T17:43:35.462Z,96.06
2023-08-12T17:46:04.046Z,95.03
2023-08-12T17:48:33.012Z,94.60
2023-08-12T17:51:01.053Z,95.98
2023-08-12T17:53:29.564Z,98.59
2023-08-12T17:55:57.608Z,98.62
2023-08-12T17:58:27.581Z,99.11
2023-08-12T18:00:56.556Z,100.00
2023-08-12T18:03:24.675Z,99.87
2023-08-12T18:05:53.767Z,99.97
2023-08-12T18:08:21.959Z,98.61
2023-08-12T18:10:49.969Z,99.66
2023-08-12T18:13:21.478Z,99.73
2023-08-12T18:15:51.226Z,100.00
2023-08-12T18:18:20.245Z,99.22
2023-08-12T18:20:48.755Z,97.79
2023-08-12T18:23:17.686Z,98.42
2023-08-12T18:25:45.969Z,99.23
2023-08-12T18:28:14.051Z,98.54
2023-08-12T18:30:42.999Z,99.36
2023-08-12T18:33:14.974Z,100.00
2023-08-12T18:35:43.853Z,100.00
2023-08-12T18:38:11.931Z,98.47
2023-08-12T18:40:39.964Z,98.84
2023-08-12T18:43:08.894Z,99.72
2023-08-12T18:45:37.613Z,99.43
2023-08-12T18:48:07.742Z,100.00
2023-08-12T18:50:37.125Z,100.00
2023-08-12T18:53:05.927Z,100.00
2023-08-12T18:55:34.865Z,100.00
2023-08-12T18:58:03.097Z,100.00
2023-08-12T19:00:31.439Z,100.00
2023-08-12T19:03:00.041Z,100.00
2023-08-12T19:05:28.688Z,100.00
2023-08-12T19:07:58.540Z,100.00
2023-08-12T19:10:26.689Z,100.00
2023-08-12T19:12:55.592Z,100.00
2023-08-12T19:15:24.639Z,100.00
2023-08-12T19:17:52.763Z,100.00
2023-08-12T19:20:21.099Z,100.00
2023-08-12T19:22:50.498Z,100.00
2023-08-12T19:25:20.064Z,100.00
2023-08-12T19:27:48.107Z,100.00
2023-08-12T19:30:16.247Z,100.00
2023-08-12T19:32:52.737Z,100.00
2023-08-12T19:35:22.305Z,100.00
2023-08-12T19:37:53.477Z,100.00
2023-08-12T19:40:23.068Z,100.00
2023-08-12T19:42:51.094Z,100.00
2023-08-12T19:45:20.647Z,100.00
2023-08-12T19:47:49.153Z,100.00
2023-08-12T19:50:17.657Z,100.00
2023-08-12T19:52:45.675Z,100.00
2023-08-12T19:55:14.217Z,100.00
2023-08-12T19:59:26.545Z,100.00
2023-08-12T20:01:54.631Z,100.00
2023-08-12T20:04:24.570Z,100.00
2023-08-12T20:06:53.098Z,100.00
2023-08-12T20:09:21.147Z,100.00
2023-08-12T20:11:49.937Z,100.00
2023-08-12T20:14:17.972Z,100.00
2023-08-12T20:16:47.803Z,100.00
2023-08-12T20:19:16.431Z,100.00
2023-08-12T20:21:44.621Z,100.00
2023-08-12T20:24:12.830Z,100.00
2023-08-12T20:26:40.804Z,100.00
2023-08-12T20:29:09.867Z,100.00
2023-08-12T20:31:37.870Z,100.00
2023-08-12T20:34:08.594Z,100.00
2023-08-12T20:36:37.521Z,100.00
2023-08-12T20:39:05.871Z,100.00
2023-08-12T20:41:35.497Z,100.00
2023-08-12T20:44:03.732Z,100.00
2023-08-12T20:46:31.902Z,100.00
2023-08-12T20:49:00.565Z,100.00
2023-08-12T20:51:29.945Z,100.00
2023-08-12T20:53:58.578Z,100.00
2023-08-12T20:56:26.707Z,100.00
2023-08-12T20:58:54.645Z,100.00
2023-08-12T21:01:23.859Z,100.00
2023-08-12T21:03:52.079Z,100.00
2023-08-12T21:06:20.143Z,100.00
2023-08-12T21:08:50.604Z,100.00
2023-08-12T21:11:19.157Z,100.00
2023-08-12T21:13:48.082Z,100.00
2023-08-12T21:16:16.135Z,100.00
2023-08-12T21:18:45.124Z,100.00
2023-08-12T21:21:13.174Z,100.00
2023-08-12T21:23:41.148Z,100.00
2023-08-12T21:26:11.228Z,100.00
2023-08-12T21:28:39.467Z,100.00
2023-08-12T21:31:07.495Z,100.00
2023-08-12T21:33:36.442Z,100.00
2023-08-12T21:36:04.839Z,100.00
2023-08-12T21:38:32.866Z,100.00
2023-08-12T21:41:02.335Z,100.00
2023-08-12T21:43:57.805Z,100.00
2023-08-12T21:46:32.702Z,100.00
2023-08-12T21:49:01.857Z,100.00
2023-08-12T21:51:30.364Z,100.00
2023-08-12T21:53:59.414Z,100.00
2023-08-12T21:56:27.553Z,100.00
2023-08-12T21:58:57.717Z,100.00
2023-08-12T22:01:26.042Z,100.00
2023-08-12T22:03:54.382Z,100.00
2023-08-12T22:06:22.468Z,100.00
2023-08-12T22:08:51.384Z,100.00
2023-08-12T22:11:19.429Z,100.00
2023-08-12T22:13:48.379Z,100.00
2023-08-12T22:16:17.786Z,100.00
2023-08-12T22:18:47.005Z,100.00
2023-08-12T22:21:15.116Z,100.00
2023-08-12T22:23:43.095Z,100.00
2023-08-12T22:26:12.557Z,100.00
2023-08-12T22:28:40.842Z,100.00
2023-08-12T22:31:09.076Z,100.00
2023-08-12T22:33:39.574Z,100.00
2023-08-12T22:36:11.711Z,100.00
2023-08-12T22:38:41.832Z,100.00
2023-08-12T22:41:10.063Z,100.00
2023-08-12T22:43:38.703Z,100.00
2023-08-12T22:46:07.772Z,100.00
2023-08-12T22:48:35.814Z,100.00
2023-08-12T22:51:05.829Z,100.00
2023-08-12T22:53:34.200Z,100.00
2023-08-12T22:56:02.724Z,100.00
2023-08-12T22:58:30.840Z,100.00
2023-08-12T23:00:59.302Z,100.00
2023-08-12T23:03:27.920Z,100.00
2023-08-12T23:05:55.948Z,100.00
2023-08-12T23:08:25.448Z,100.00
2023-08-12T23:10:55.408Z,100.00
2023-08-12T23:13:23.929Z,100.00
2023-08-12T23:15:52.774Z,100.00
2023-08-12T23:18:21.284Z,100.00
2023-08-12T23:20:49.807Z,100.00
2023-08-12T23:23:17.940Z,100.00
2023-08-12T23:25:47.808Z,100.00
2023-08-12T23:28:15.803Z,100.00
2023-08-12T23:30:44.303Z,100.00
2023-08-12T23:33:12.755Z,100.00
2023-08-12T23:35:41.587Z,100.00
2023-08-12T23:38:10.727Z,100.00
2023-08-12T23:40:38.758Z,100.00
2023-08-12T23:43:09.087Z,100.00
2023-08-12T23:45:38.109Z,100.00
2023-08-12T23:48:06.843Z,100.00
2023-08-12T23:50:35.509Z,100.00
2023-08-12T23:53:04.630Z,100.00
2023-08-12T23:55:34.727Z,100.00
2023-08-12T23:58:02.912Z,100.00
